Time;durP1;ratioP1;P1;durP2;ratioP2;P2;SDS_P1;SDS_P2;PMS_P1;PMS_P2;Temp;Humidity;BMP_temperature;BMP_pressure;BME280_temperature;BME280_humidity;BME280_pressure;Samples;Min_cycle;Max_cycle;Signal;HPM_P1;HPM_P2
2022/03/25 00:00:05;;;;;;;33.38;16.92;;;;;;;7.48;49.76;101717.13;5030753;28;20076;-70
2022/03/25 00:02:41;;;;;;;35.53;17.42;;;;;;;7.46;50.13;101723.88;5031928;28;20396;-70
2022/03/25 00:05:09;;;;;;;36.65;17.15;;;;;;;7.41;49.31;101721.84;5034762;28;20045;-69
2022/03/25 00:07:37;;;;;;;35.70;16.77;;;;;;;7.41;48.85;101721.84;5035121;28;20049;-70
2022/03/25 00:10:05;;;;;;;29.50;16.13;;;;;;;7.42;48.65;101718.06;5034570;28;20057;-69
2022/03/25 00:12:34;;;;;;;31.95;16.58;;;;;;;7.41;48.57;101716.41;5035314;28;20053;-69
2022/03/25 00:15:01;;;;;;;33.20;16.63;;;;;;;7.40;48.34;101714.75;5034802;28;20061;-69
2022/03/25 00:17:29;;;;;;;36.95;16.85;;;;;;;7.35;48.40;101722.78;5035396;28;20049;-69
2022/03/25 00:19:57;;;;;;;32.15;19.20;;;;;;;7.32;48.65;101729.50;5034511;28;20053;-69
2022/03/25 00:22:25;;;;;;;29.90;15.45;;;;;;;7.32;48.68;101724.06;5035391;28;20492;-69
2022/03/25 00:24:53;;;;;;;33.08;16.60;;;;;;;7.30;48.89;101715.31;5035234;28;20037;-69
2022/03/25 00:27:21;;;;;;;29.85;16.65;;;;;;;7.26;48.91;101722.25;5035199;28;20049;-69
2022/03/25 00:29:49;;;;;;;31.67;16.85;;;;;;;7.20;48.93;101724.00;5032969;28;20048;-70
2022/03/25 00:32:20;;;;;;;27.60;17.00;;;;;;;7.18;49.04;101723.41;5035171;28;20045;-69
2022/03/25 00:34:47;;;;;;;33.42;16.55;;;;;;;7.16;49.25;101732.84;5034648;28;20053;-69
2022/03/25 00:37:15;;;;;;;29.25;16.13;;;;;;;7.14;49.26;101722.22;5017190;28;20057;-69
2022/03/25 00:39:44;;;;;;;29.73;15.18;;;;;;;7.11;49.64;101717.22;5017297;28;20602;-69
2022/03/25 00:42:16;;;;;;;31.52;16.52;;;;;;;7.09;49.73;101727.50;5036316;28;20065;-70
2022/03/25 00:44:45;;;;;;;33.55;16.33;;;;;;;7.05;49.82;101723.56;5037173;28;20057;-69
2022/03/25 00:47:14;;;;;;;28.17;15.65;;;;;;;7.04;50.29;101727.34;5035780;28;20057;-69
2022/03/25 00:49:42;;;;;;;33.30;15.10;;;;;;;7.01;50.50;101725.06;5034464;28;20504;-69
2022/03/25 00:52:10;;;;;;;33.40;16.40;;;;;;;7.03;50.02;101715.63;5021070;28;20046;-69
2022/03/25 00:54:38;;;;;;;32.67;16.83;;;;;;;7.03;50.06;101715.63;5017105;28;20056;-70
2022/03/25 00:57:07;;;;;;;29.40;15.15;;;;;;;7.03;50.30;101714.81;5034911;28;20037;-69
2022/03/25 00:59:35;;;;;;;33.90;17.98;;;;;;;6.99;50.36;101712.53;5016543;28;20044;-67
2022/03/25 01:02:03;;;;;;;30.33;16.80;;;;;;;7.00;50.16;101713.38;5016928;28;20046;-68
2022/03/25 01:04:31;;;;;;;29.60;15.32;;;;;;;6.96;50.12;101712.16;5034700;28;20045;-67
2022/03/25 01:06:59;;;;;;;29.38;16.30;;;;;;;6.91;50.56;101709.28;5016733;28;20045;-69
2022/03/25 01:09:27;;;;;;;35.75;15.68;;;;;;;6.86;51.15;101704.53;5034383;28;20052;-69
2022/03/25 01:11:55;;;;;;;31.80;15.25;;;;;;;6.82;51.77;101703.31;5016690;28;20045;-69
2022/03/25 01:14:23;;;;;;;28.15;15.85;;;;;;;6.79;51.30;101704.59;5016017;28;20404;-69
2022/03/25 01:16:50;;;;;;;30.98;15.95;;;;;;;6.81;51.52;101699.78;4999672;28;20056;-69
2022/03/25 01:19:20;;;;;;;34.95;16.80;;;;;;;6.82;51.74;101697.88;5033378;28;20060;-70
2022/03/25 01:21:51;;;;;;;33.65;14.80;;;;;;;6.80;51.42;101694.56;5033874;28;20056;-67
2022/03/25 01:24:20;;;;;;;32.15;15.60;;;;;;;6.77;51.64;101695.00;5033709;28;20493;-69
2022/03/25 01:26:48;;;;;;;33.17;14.98;;;;;;;6.73;52.06;101697.34;5016907;28;20582;-69
2022/03/25 01:29:15;;;;;;;30.60;15.75;;;;;;;6.69;51.35;101696.13;5034228;28;20064;-69
2022/03/25 01:31:44;;;;;;;34.35;16.15;;;;;;;6.66;51.13;101689.28;5016304;28;20049;-70
2022/03/25 01:34:12;;;;;;;31.42;14.80;;;;;;;6.80;50.18;101686.38;5033999;28;20373;-69
2022/03/25 01:36:39;;;;;;;30.83;14.93;;;;;;;7.08;48.90;101677.66;5033554;28;20392;-69
2022/03/25 01:39:09;;;;;;;25.88;13.65;;;;;;;7.08;49.32;101674.09;5033279;28;20491;-69
2022/03/25 01:41:36;;;;;;;27.75;14.68;;;;;;;6.96;49.41;101682.22;5002017;28;20057;-69
2022/03/25 01:44:05;;;;;;;29.00;15.05;;;;;;;6.87;49.69;101676.25;5033005;28;20064;-70
2022/03/25 01:46:33;;;;;;;31.25;14.85;;;;;;;6.97;49.68;101673.84;5033717;28;20045;-70
2022/03/25 01:49:02;;;;;;;29.73;13.98;;;;;;;6.94;49.99;101685.16;5032920;28;20113;-69
2022/03/25 01:51:36;;;;;;;31.27;16.65;;;;;;;6.83;50.36;101678.59;5033519;28;20065;-69
2022/03/25 01:54:25;;;;;;;26.58;14.10;;;;;;;6.72;50.73;101676.63;5016248;28;20488;-69
2022/03/25 01:57:03;;;;;;;31.02;15.27;;;;;;;6.64;50.68;101674.22;5015669;28;20058;-69
2022/03/25 01:59:32;;;;;;;30.10;15.30;;;;;;;6.57;51.77;101674.28;5015860;28;20042;-69
2022/03/25 02:02:02;;;;;;;27.58;15.10;;;;;;;6.50;51.85;101668.09;5033040;28;20515;-70
2022/03/25 02:04:31;;;;;;;27.10;14.32;;;;;;;6.48;51.99;101670.19;5015869;28;20041;-69
2022/03/25 02:06:59;;;;;;;32.45;15.82;;;;;;;6.44;52.48;101670.66;5032568;28;20033;-69
2022/03/25 02:09:28;;;;;;;28.98;15.15;;;;;;;6.40;52.83;101672.16;5030741;28;20049;-69
2022/03/25 02:11:59;;;;;;;26.27;13.93;;;;;;;6.39;52.69;101667.78;5015512;28;20495;-69
2022/03/25 02:14:27;;;;;;;31.85;15.10;;;;;;;6.41;52.59;101665.66;5015653;28;20056;-69
2022/03/25 02:16:55;;;;;;;32.03;14.52;;;;;;;6.37;52.74;101664.47;5033217;28;20053;-69
2022/03/25 02:19:24;;;;;;;31.38;15.10;;;;;;;6.46;51.78;101667.72;5015326;28;20049;-69
2022/03/25 02:21:52;;;;;;;30.45;14.43;;;;;;;6.55;51.79;101666.34;5033107;28;20049;-69
2022/03/25 02:24:27;;;;;;;31.02;15.77;;;;;;;6.50;51.65;101662.66;5000432;28;20061;-69
2022/03/25 02:26:55;;;;;;;27.38;14.50;;;;;;;6.50;51.67;101666.19;5015224;28;20064;-70
2022/03/25 02:29:24;;;;;;;28.83;14.18;;;;;;;6.50;50.72;101673.53;5018851;28;20046;-69
2022/03/25 02:31:51;;;;;;;26.88;14.10;;;;;;;6.45;51.75;101672.31;4995710;28;20054;-69
2022/03/25 02:34:19;;;;;;;31.75;15.00;;;;;;;6.47;51.83;101668.53;5008673;28;20042;-69
2022/03/25 02:36:47;;;;;;;26.20;14.50;;;;;;;6.48;51.43;101670.19;5032785;28;20042;-69
2022/03/25 02:39:16;;;;;;;30.77;14.27;;;;;;;6.43;51.67;101671.72;5032654;28;20049;-69
2022/03/25 02:41:45;;;;;;;29.25;14.30;;;;;;;6.37;52.09;101661.75;5014980;28;20041;-69
2022/03/25 02:44:14;;;;;;;28.33;14.48;;;;;;;6.40;51.97;101668.63;5015026;28;20041;-69
2022/03/25 02:46:45;;;;;;;27.65;14.15;;;;;;;6.35;51.78;101672.00;5014930;28;20056;-68
2022/03/25 02:49:14;;;;;;;27.70;14.57;;;;;;;6.32;53.05;101675.19;5014870;28;20045;-69
2022/03/25 02:51:42;;;;;;;27.75;15.32;;;;;;;6.32;52.46;101658.88;5032003;28;20045;-69
2022/03/25 02:54:09;;;;;;;27.65;13.45;;;;;;;6.32;52.88;101672.47;5032793;28;20041;-69
2022/03/25 02:56:37;;;;;;;28.73;13.73;;;;;;;6.26;52.49;101657.03;5032145;28;20156;-69
2022/03/25 02:59:05;;;;;;;28.90;14.18;;;;;;;6.29;52.87;101662.84;5031323;28;20041;-70
2022/03/25 03:01:34;;;;;;;27.90;13.80;;;;;;;6.30;52.82;101672.66;5032522;28;20084;-69
2022/03/25 03:04:02;;;;;;;31.17;14.75;;;;;;;6.21;53.45;101670.47;5014648;28;20053;-69
2022/03/25 03:06:31;;;;;;;29.23;14.27;;;;;;;6.11;53.59;101671.78;5032205;28;20049;-69
2022/03/25 03:08:58;;;;;;;26.90;13.82;;;;;;;6.05;53.53;101661.81;5031530;28;20053;-69
2022/03/25 03:11:28;;;;;;;31.35;14.80;;;;;;;6.02;53.57;101663.09;5031620;28;20419;-69
2022/03/25 03:13:56;;;;;;;30.48;14.27;;;;;;;5.98;53.79;101666.47;5031309;28;20041;-69
2022/03/25 03:16:24;;;;;;;28.58;14.10;;;;;;;5.96;54.64;101663.94;5030182;28;20041;-70
2022/03/25 03:18:52;;;;;;;26.88;14.43;;;;;;;5.93;54.60;101658.97;5031933;28;20046;-69
2022/03/25 03:21:23;;;;;;;24.27;13.75;;;;;;;5.89;54.53;101669.47;5033280;28;20053;-69
2022/03/25 03:23:52;;;;;;;29.98;13.75;;;;;;;5.86;54.79;101669.88;5038037;28;20045;-69
2022/03/25 03:26:20;;;;;;;28.75;14.05;;;;;;;5.97;54.30;101664.78;5032535;28;20038;-69
2022/03/25 03:28:48;;;;;;;30.52;14.50;;;;;;;6.09;54.25;101660.31;5031788;28;20056;-69
2022/03/25 03:31:16;;;;;;;28.92;14.50;;;;;;;6.03;54.35;101669.38;5031157;28;20112;-69
2022/03/25 03:33:44;;;;;;;27.25;13.68;;;;;;;5.94;54.93;101671.50;5031086;28;20084;-69
2022/03/25 03:36:12;;;;;;;31.70;14.95;;;;;;;5.97;55.01;101671.03;5030212;28;20052;-69
2022/03/25 03:38:40;;;;;;;28.55;13.88;;;;;;;6.07;54.63;101667.88;5032981;28;20411;-69
2022/03/25 03:41:09;;;;;;;33.53;14.88;;;;;;;5.96;54.81;101663.94;5036003;28;20046;-69
2022/03/25 03:43:36;;;;;;;30.23;14.20;;;;;;;5.86;55.49;101669.88;5022027;28;20061;-69
2022/03/25 03:46:04;;;;;;;29.00;14.93;;;;;;;5.79;55.77;101674.53;5035591;28;20057;-67
2022/03/25 03:48:32;;;;;;;32.17;14.77;;;;;;;5.76;56.07;101669.53;5035289;28;20050;-67
2022/03/25 03:51:00;;;;;;;27.15;13.68;;;;;;;5.70;56.03;101670.41;5035113;28;20091;-67
2022/03/25 03:53:28;;;;;;;28.35;13.48;;;;;;;5.65;56.62;101669.22;5017915;28;20519;-67
2022/03/25 03:55:56;;;;;;;29.45;14.00;;;;;;;5.62;56.94;101671.53;5035763;28;20045;-69
2022/03/25 03:58:24;;;;;;;30.45;14.38;;;;;;;5.57;57.46;101674.91;5035175;28;20050;-69
2022/03/25 04:00:51;;;;;;;30.05;14.38;;;;;;;5.59;57.07;101675.53;5033646;28;20053;-69
2022/03/25 04:03:19;;;;;;;29.23;13.80;;;;;;;5.74;56.64;101671.66;5034545;28;20407;-69
2022/03/25 04:05:47;;;;;;;27.23;14.10;;;;;;;5.69;57.29;101675.03;5034690;28;20050;-69
2022/03/25 04:08:15;;;;;;;29.55;14.43;;;;;;;5.71;57.17;101666.69;5017843;28;20045;-69
2022/03/25 04:10:43;;;;;;;28.33;14.40;;;;;;;5.73;57.21;101672.72;5034183;28;20062;-69
2022/03/25 04:13:11;;;;;;;24.35;13.05;;;;;;;5.62;56.96;101675.06;5034422;28;20368;-69
2022/03/25 04:15:39;;;;;;;29.35;13.35;;;;;;;5.63;54.76;101676.72;5034589;28;20050;-69
2022/03/25 04:18:08;;;;;;;28.92;14.18;;;;;;;5.55;55.08;101668.88;5034458;28;20042;-69
2022/03/25 04:20:36;;;;;;;26.90;13.55;;;;;;;5.45;55.62;101680.22;5033812;28;20065;-69
2022/03/25 04:23:04;;;;;;;28.67;12.55;;;;;;;5.37;55.48;101684.00;5034376;28;20407;-69
2022/03/25 04:25:32;;;;;;;26.27;13.00;;;;;;;5.34;56.05;101683.63;5027469;28;20049;-69
2022/03/25 04:28:00;;;;;;;27.55;13.73;;;;;;;5.35;56.23;101680.69;5034222;28;20490;-69
2022/03/25 04:30:33;;;;;;;28.30;13.55;;;;;;;5.32;56.13;101693.88;5026487;28;20052;-69
2022/03/25 04:33:01;;;;;;;27.75;14.35;;;;;;;5.46;56.27;101691.88;5006992;28;20389;-69
2022/03/25 04:35:32;;;;;;;28.17;14.27;;;;;;;5.37;56.35;101694.03;5022086;28;20057;-69
2022/03/25 04:38:00;;;;;;;26.73;13.73;;;;;;;5.45;55.97;101695.66;5026573;28;20048;-69
2022/03/25 04:40:30;;;;;;;26.98;13.50;;;;;;;5.38;56.38;101695.72;5027172;28;20037;-69
2022/03/25 04:42:59;;;;;;;27.38;15.10;;;;;;;5.33;56.47;101704.47;5028031;28;20060;-69
2022/03/25 04:45:28;;;;;;;24.85;13.27;;;;;;;5.25;57.09;101708.28;5020650;28;20421;-69
2022/03/25 04:47:56;;;;;;;30.98;13.75;;;;;;;5.15;57.46;101701.66;5026012;28;20049;-69
2022/03/25 04:50:24;;;;;;;32.42;14.88;;;;;;;5.07;57.55;101709.00;5020143;28;20042;-69
2022/03/25 04:52:52;;;;;;;27.15;13.70;;;;;;;5.05;57.97;101712.97;5006561;28;20057;-69
2022/03/25 04:55:21;;;;;;;27.63;13.18;;;;;;;5.00;58.07;101715.50;5025831;28;20492;-69
2022/03/25 04:57:49;;;;;;;22.95;12.77;;;;;;;4.95;58.47;101727.00;5031630;28;20522;-69
2022/03/25 05:00:17;;;;;;;26.98;13.40;;;;;;;4.99;58.47;101730.94;5032391;28;20492;-69
2022/03/25 05:02:46;;;;;;;33.50;13.63;;;;;;;4.93;58.32;101720.94;5033459;28;20045;-69
2022/03/25 05:05:14;;;;;;;34.55;17.15;;;;;;;4.92;58.68;101722.81;5007392;28;20346;-69
2022/03/25 05:07:47;;;;;;;32.45;14.13;;;;;;;4.95;59.02;101732.41;5032698;28;20050;-69
2022/03/25 05:10:15;;;;;;;27.70;14.77;;;;;;;4.93;58.55;101732.63;5034426;28;20041;-69
2022/03/25 05:12:44;;;;;;;34.47;15.40;;;;;;;4.92;58.80;101732.81;5033767;28;20057;-69
2022/03/25 05:15:13;;;;;;;47.97;15.80;;;;;;;4.90;58.71;101737.66;5033403;28;20053;-69
2022/03/25 05:17:48;;;;;;;43.55;15.57;;;;;;;4.88;59.12;101739.75;5034130;28;20041;-69
2022/03/25 05:20:17;;;;;;;35.47;14.82;;;;;;;4.89;58.34;101742.22;5033016;28;20041;-69
2022/03/25 05:22:46;;;;;;;39.80;15.95;;;;;;;4.90;59.18;101751.22;5033925;28;20045;-67
2022/03/25 05:25:16;;;;;;;36.05;14.68;;;;;;;4.91;58.81;101750.16;5025354;28;20481;-69
2022/03/25 05:27:52;;;;;;;30.48;14.65;;;;;;;4.94;58.49;101755.16;5033159;28;20407;-69
2022/03/25 05:30:23;;;;;;;29.77;13.77;;;;;;;4.94;58.84;101757.88;5027234;28;20053;-69
2022/03/25 05:32:51;;;;;;;31.60;14.30;;;;;;;5.02;59.19;101754.94;5030386;28;20057;-69
2022/03/25 05:35:20;;;;;;;29.75;14.02;;;;;;;5.09;58.17;101763.06;5027736;28;20381;-69
2022/03/25 05:37:48;;;;;;;28.90;15.20;;;;;;;5.15;57.98;101773.06;5031822;28;20497;-67
2022/03/25 05:40:19;;;;;;;30.77;15.00;;;;;;;5.23;58.06;101772.81;5031663;28;20038;-67
2022/03/25 05:42:47;;;;;;;30.20;13.25;;;;;;;5.38;57.64;101767.09;5031162;28;20436;-69
2022/03/25 05:45:17;;;;;;;29.15;13.10;;;;;;;5.63;56.94;101766.34;5013827;28;20045;-69
2022/03/25 05:47:46;;;;;;;26.30;14.00;;;;;;;5.80;56.07;101774.00;5035643;28;20408;-69
2022/03/25 05:50:16;;;;;;;28.83;13.57;;;;;;;5.83;57.28;101775.44;5026955;28;20058;-69
2022/03/25 05:52:44;;;;;;;32.72;14.18;;;;;;;5.97;55.88;101784.34;5032897;28;20579;-69
2022/03/25 05:55:13;;;;;;;32.15;14.98;;;;;;;6.00;55.42;101781.19;5011550;28;20058;-69
2022/03/25 05:57:41;;;;;;;33.00;14.98;;;;;;;6.16;54.32;101780.69;5020833;28;20050;-69
2022/03/25 06:00:11;;;;;;;29.48;13.73;;;;;;;6.56;52.72;101784.16;5027340;28;20041;-69
2022/03/25 06:02:45;;;;;;;26.10;13.82;;;;;;;6.72;52.16;101780.84;5031535;28;20052;-69
2022/03/25 06:05:13;;;;;;;27.08;14.32;;;;;;;6.77;52.21;101776.63;5030669;28;20042;-69
2022/03/25 06:07:44;;;;;;;26.90;15.20;;;;;;;6.95;51.96;101783.97;5027966;28;20056;-68
2022/03/25 06:10:14;;;;;;;35.90;15.65;;;;;;;7.11;51.63;101790.72;5030047;28;20064;-69
2022/03/25 06:12:42;;;;;;;29.13;15.63;;;;;;;7.18;51.55;101790.66;5028981;28;20056;-69
2022/03/25 06:15:10;;;;;;;30.63;14.82;;;;;;;7.37;51.56;101792.28;5031275;28;20042;-68
2022/03/25 06:17:50;;;;;;;31.13;14.85;;;;;;;7.73;50.15;101794.34;5031380;28;20587;-69
2022/03/25 06:20:23;;;;;;;31.27;15.70;;;;;;;8.13;49.82;101792.94;5029304;28;20064;-78
2022/03/25 06:22:56;;;;;;;30.55;15.77;;;;;;;8.38;48.59;101789.19;4973348;28;20053;-78
2022/03/25 06:25:24;;;;;;;32.90;17.10;;;;;;;8.49;47.72;101796.56;5005374;28;20100;-77
2022/03/25 06:27:59;;;;;;;38.90;17.20;;;;;;;8.67;47.43;101803.00;4985315;28;20053;-78
2022/03/25 06:30:34;;;;;;;36.28;16.35;;;;;;;8.79;47.20;101809.28;4970219;28;20046;-78
2022/03/25 06:33:05;;;;;;;33.97;16.90;;;;;;;8.90;47.35;101809.53;4997916;28;20061;-78
2022/03/25 06:35:34;;;;;;;40.80;17.60;;;;;;;8.99;46.78;101805.34;4989304;28;20417;-78
2022/03/25 06:38:05;;;;;;;31.75;16.45;;;;;;;9.13;46.29;101811.41;4991390;28;20054;-78
2022/03/25 06:40:33;;;;;;;33.50;16.33;;;;;;;9.27;46.22;101806.50;4965205;28;20053;-79
2022/03/25 06:43:01;;;;;;;31.77;16.08;;;;;;;9.43;45.77;101798.66;4982103;28;20050;-79
2022/03/25 06:45:30;;;;;;;35.45;17.27;;;;;;;9.59;45.11;101814.28;4966048;28;20050;-69
2022/03/25 06:47:58;;;;;;;33.97;16.48;;;;;;;9.84;46.03;101818.56;5025200;28;20056;-69
2022/03/25 06:50:26;;;;;;;33.85;16.38;;;;;;;10.02;44.82;101812.06;5026704;28;20408;-70
2022/03/25 06:52:55;;;;;;;31.00;16.52;;;;;;;10.32;44.84;101812.84;5029202;28;20064;-69
2022/03/25 06:55:23;;;;;;;37.03;17.58;;;;;;;10.44;43.87;101819.09;5026833;28;20049;-69
2022/03/25 06:57:51;;;;;;;32.42;16.90;;;;;;;10.38;44.37;101813.75;5029731;28;20037;-69
2022/03/25 07:00:21;;;;;;;34.38;16.45;;;;;;;10.80;44.48;101816.09;5026055;28;20053;-69
2022/03/25 07:02:50;;;;;;;33.22;17.67;;;;;;;10.91;42.93;101806.13;5029025;28;20064;-69
2022/03/25 07:05:18;;;;;;;31.00;16.77;;;;;;;11.11;41.86;101815.72;5027197;28;20092;-69
2022/03/25 07:07:46;;;;;;;35.47;17.38;;;;;;;11.26;41.77;101813.19;5020383;28;20042;-68
2022/03/25 07:10:15;;;;;;;35.53;17.17;;;;;;;11.38;40.87;101820.44;5031996;28;20042;-69
2022/03/25 07:12:46;;;;;;;32.95;16.58;;;;;;;11.42;40.54;101816.09;5031297;28;20053;-69
2022/03/25 07:15:14;;;;;;;32.28;17.38;;;;;;;11.85;39.73;101819.06;5030856;28;20049;-69
2022/03/25 07:17:43;;;;;;;34.22;17.77;;;;;;;12.12;38.73;101828.41;5031709;28;20033;-69
2022/03/25 07:20:13;;;;;;;39.33;19.02;;;;;;;12.27;39.21;101812.06;5031712;28;20041;-69
2022/03/25 07:22:47;;;;;;;39.00;19.90;;;;;;;12.62;39.19;101816.19;5031681;28;20575;-69
2022/03/25 07:25:16;;;;;;;40.92;19.98;;;;;;;13.08;37.71;101831.34;5031794;28;20049;-69
2022/03/25 07:27:46;;;;;;;41.38;20.20;;;;;;;12.96;37.46;101826.03;5031484;28;20045;-69
2022/03/25 07:30:17;;;;;;;40.70;19.08;;;;;;;13.15;37.08;101822.84;5031664;28;20044;-69
2022/03/25 07:32:46;;;;;;;42.80;20.50;;;;;;;13.47;36.56;101824.66;5030587;28;20053;-69
2022/03/25 07:35:14;;;;;;;42.72;20.50;;;;;;;13.52;35.86;101821.09;5031059;28;20779;-69
2022/03/25 07:37:43;;;;;;;41.22;19.65;;;;;;;13.42;35.37;101821.88;5031150;28;20050;-69
2022/03/25 07:40:13;;;;;;;44.20;18.25;;;;;;;13.87;33.93;101821.50;5030680;28;20045;-70
2022/03/25 07:42:42;;;;;;;29.02;17.73;;;;;;;13.95;34.40;101830.06;5030712;28;20056;-69
2022/03/25 07:45:13;;;;;;;33.35;18.20;;;;;;;14.36;34.97;101821.00;5030618;28;20416;-69
2022/03/25 07:47:46;;;;;;;34.72;18.52;;;;;;;14.88;33.73;101823.75;5030648;28;20508;-70
2022/03/25 07:50:20;;;;;;;36.53;18.50;;;;;;;14.83;32.78;101829.25;5031115;28;20045;-69
2022/03/25 07:52:49;;;;;;;33.60;18.80;;;;;;;14.27;33.92;101835.59;5031123;28;20058;-69
2022/03/25 07:55:19;;;;;;;37.97;18.88;;;;;;;14.15;33.84;101831.16;5030800;28;20049;-69
2022/03/25 07:57:49;;;;;;;36.33;18.88;;;;;;;14.80;34.36;101834.50;5030817;28;20504;-69
2022/03/25 08:00:17;;;;;;;31.73;18.33;;;;;;;15.08;32.61;101832.22;5030916;28;20405;-69
2022/03/25 08:02:51;;;;;;;41.28;19.60;;;;;;;14.56;32.57;101826.78;5030702;28;20049;-69
2022/03/25 08:05:19;;;;;;;;;;;;;;;15.19;31.94;101828.31;5031368;28;20049;-69
2022/03/25 08:07:54;;;;;;;31.05;18.13;;;;;;;15.40;30.89;101825.50;5031323;28;19925;-69
2022/03/25 08:10:25;;;;;;;33.47;17.10;;;;;;;15.13;30.49;101821.19;5031221;28;20045;-69
2022/03/25 08:12:56;;;;;;;31.35;18.00;;;;;;;15.44;31.33;101823.81;5030764;28;20045;-69
2022/03/25 08:15:27;;;;;;;34.28;18.92;;;;;;;15.24;30.13;101822.78;5031002;28;20045;-69
2022/03/25 08:18:00;;;;;;;38.33;18.75;;;;;;;15.26;30.88;101820.56;5031151;28;20068;-69
2022/03/25 08:20:33;;;;;;;32.65;16.70;;;;;;;15.83;29.77;101825.84;5030775;28;20164;-69
2022/03/25 08:23:03;;;;;;;33.22;19.33;;;;;;;15.89;29.18;101823.84;5030413;28;20125;-69
2022/03/25 08:28:19;;;;;;;29.33;17.13;;;;;;;16.30;28.19;101830.22;5034640;28;20040;-69
2022/03/25 08:30:48;;;;;;;31.65;17.63;;;;;;;15.87;29.06;101823.31;5033904;28;20046;-69
2022/03/25 08:33:16;;;;;;;40.22;17.13;;;;;;;16.27;29.26;101825.31;5033575;28;20045;-69
2022/03/25 08:35:45;;;;;;;37.60;17.17;;;;;;;16.64;27.53;101826.63;5034802;28;20053;-69
2022/03/25 08:38:13;;;;;;;28.77;16.30;;;;;;;17.18;27.97;101824.72;5034196;28;20053;-70
2022/03/25 08:40:41;;;;;;;30.27;16.85;;;;;;;17.34;27.74;101832.81;5033985;28;20065;-70
2022/03/25 08:43:29;;;;;;;45.25;18.20;;;;;;;17.52;26.95;101822.91;5034120;28;20420;-70
2022/03/25 08:45:57;;;;;;;30.40;17.45;;;;;;;17.77;26.92;101825.63;5034586;28;20056;-69
2022/03/25 08:48:25;;;;;;;27.75;18.23;;;;;;;17.84;27.33;101826.91;5033696;28;20053;-69
2022/03/25 08:50:53;;;;;;;30.33;16.85;;;;;;;18.02;27.15;101823.63;5034514;28;20041;-69
2022/03/25 08:53:21;;;;;;;32.58;16.73;;;;;;;17.02;27.15;101832.34;5034181;28;20049;-70
2022/03/25 08:55:49;;;;;;;33.00;17.00;;;;;;;17.10;27.16;101816.25;5033725;28;20084;-70
2022/03/25 08:58:17;;;;;;;29.80;17.13;;;;;;;17.37;27.52;101826.72;5033243;28;20045;-70
2022/03/25 09:00:45;;;;;;;33.78;17.73;;;;;;;17.94;26.76;101817.59;5033527;28;20049;-70
2022/03/25 09:03:13;;;;;;;30.27;17.73;;;;;;;17.59;27.01;101822.53;5034368;28;20688;-70
2022/03/25 09:05:41;;;;;;;29.02;17.00;;;;;;;17.55;27.42;101819.53;5020436;28;20053;-69
2022/03/25 09:08:09;;;;;;;30.88;17.60;;;;;;;18.15;26.01;101825.66;5034106;28;20045;-69
2022/03/25 09:10:37;;;;;;;35.30;16.23;;;;;;;18.09;26.70;101824.09;5016591;28;20040;-70
2022/03/25 09:13:05;;;;;;;32.15;18.67;;;;;;;17.82;26.83;101820.00;5020403;28;20042;-69
2022/03/25 09:15:34;;;;;;;28.20;16.70;;;;;;;18.43;26.15;101825.72;5033695;28;20523;-69
2022/03/25 09:18:02;;;;;;;31.05;17.33;;;;;;;18.61;26.81;101824.03;5033772;28;20396;-70
2022/03/25 09:20:34;;;;;;;35.88;18.15;;;;;;;18.69;26.26;101830.84;5033776;28;20495;-70
2022/03/25 09:23:02;;;;;;;25.88;16.55;;;;;;;18.42;26.75;101829.63;5033074;28;20041;-70
2022/03/25 09:25:30;;;;;;;26.63;16.30;;;;;;;18.40;25.85;101826.34;5033717;28;20057;-69
2022/03/25 09:27:58;;;;;;;26.38;15.88;;;;;;;18.35;26.40;101815.34;5033623;28;20041;-70
2022/03/25 09:30:26;;;;;;;32.38;16.63;;;;;;;18.16;26.47;101821.75;5033060;28;20045;-70
2022/03/25 09:33:04;;;;;;;27.20;17.48;;;;;;;18.40;25.85;101818.03;5032538;28;20072;-70
2022/03/25 09:35:38;;;;;;;32.13;17.15;;;;;;;18.62;26.31;101822.91;5032826;28;20076;-70
2022/03/25 09:38:06;;;;;;;30.92;17.42;;;;;;;18.93;26.14;101818.75;5032747;28;20080;-70
2022/03/25 09:40:35;;;;;;;32.50;17.95;;;;;;;19.06;26.56;101814.34;5033002;28;20053;-70
2022/03/25 09:43:05;;;;;;;30.48;17.13;;;;;;;18.99;26.50;101820.31;5032910;28;20057;-70
2022/03/25 09:45:35;;;;;;;32.28;19.27;;;;;;;18.66;26.80;101823.13;5033252;28;20064;-70
2022/03/25 09:48:04;;;;;;;34.25;19.20;;;;;;;18.95;28.13;101805.41;5032280;28;20054;-70
2022/03/25 09:50:37;;;;;;;31.38;19.10;;;;;;;19.03;26.95;101807.50;5032687;28;20053;-70
2022/03/25 09:53:07;;;;;;;33.15;18.25;;;;;;;19.45;26.87;101807.44;5032761;28;20065;-69
2022/03/25 09:55:44;;;;;;;33.05;19.70;;;;;;;19.67;26.23;101802.25;5032830;28;20053;-70
2022/03/25 09:58:19;;;;;;;31.10;19.05;;;;;;;19.65;26.79;101801.78;5033298;28;20049;-70
2022/03/25 10:00:51;;;;;;;30.80;19.13;;;;;;;20.20;25.41;101805.50;5019122;28;20064;-70
2022/03/25 10:03:32;;;;;;;30.23;18.08;;;;;;;20.09;26.09;101797.41;5032651;28;20427;-70
2022/03/25 10:06:01;;;;;;;32.10;19.50;;;;;;;19.80;26.69;101795.03;5032622;28;20048;-70
2022/03/25 10:08:42;;;;;;;33.63;19.90;;;;;;;19.37;27.42;101799.03;5032992;28;20042;-70
2022/03/25 10:11:21;;;;;;;38.47;21.60;;;;;;;19.42;27.07;101798.94;5032543;28;20052;-70
2022/03/25 10:14:16;;;;;;;32.80;19.88;;;;;;;19.39;26.44;101791.22;5033038;28;20053;-70
2022/03/25 10:16:45;;;;;;;32.67;19.75;;;;;;;19.57;26.86;101792.22;5032871;28;20054;-70
2022/03/25 10:19:23;;;;;;;36.25;21.58;;;;;;;19.07;27.81;101789.09;5032041;28;20049;-70
2022/03/25 10:22:02;;;;;;;35.75;20.42;;;;;;;20.10;26.97;101787.13;5032093;28;20053;-70
2022/03/25 10:24:39;;;;;;;40.30;21.25;;;;;;;19.94;25.97;101793.03;5032006;28;20049;-70
2022/03/25 10:27:21;;;;;;;34.03;21.65;;;;;;;20.06;25.42;101792.50;5031911;28;20049;-70
2022/03/25 10:29:50;;;;;;;36.85;21.75;;;;;;;19.72;26.12;101788.25;5032607;28;20388;-70
2022/03/25 10:32:25;;;;;;;34.67;20.63;;;;;;;20.09;26.79;101802.97;5032296;28;20034;-70
2022/03/25 10:35:19;;;;;;;35.63;21.10;;;;;;;20.27;25.56;101791.97;5032093;28;20056;-70
2022/03/25 10:37:58;;;;;;;39.30;20.85;;;;;;;20.12;25.31;101788.47;5029599;28;20056;-70
2022/03/25 10:40:26;;;;;;;35.13;20.33;;;;;;;19.77;26.66;101790.94;5032127;28;20488;-67
2022/03/25 10:43:09;;;;;;;32.20;20.58;;;;;;;19.39;26.08;101783.72;5026680;28;20046;-70
2022/03/25 10:45:40;;;;;;;36.33;21.23;;;;;;;20.36;25.99;101790.09;5024628;28;20496;-70
2022/03/25 10:48:20;;;;;;;34.65;20.50;;;;;;;20.36;24.53;101784.53;5032141;28;20033;-68
2022/03/25 10:50:55;;;;;;;36.88;19.05;;;;;;;20.50;24.86;101783.63;5032289;28;20045;-70
2022/03/25 10:53:24;;;;;;;30.75;19.23;;;;;;;20.78;24.66;101781.44;5018891;28;20037;-70
2022/03/25 10:55:54;;;;;;;35.63;19.77;;;;;;;21.16;23.17;101780.13;5031491;28;20606;-70
2022/03/25 10:58:22;;;;;;;34.08;20.02;;;;;;;20.63;23.66;101773.53;5032253;28;20045;-70
2022/03/25 11:00:51;;;;;;;29.83;19.48;;;;;;;20.81;23.28;101778.03;5031291;28;20049;-70
2022/03/25 11:03:19;;;;;;;31.55;20.45;;;;;;;20.94;23.02;101767.97;5031542;28;20044;-70
2022/03/25 11:05:49;;;;;;;32.47;19.90;;;;;;;20.77;23.20;101776.22;5014675;28;20041;-69
2022/03/25 11:08:18;;;;;;;32.75;20.67;;;;;;;20.80;23.49;101772.78;5031914;28;20037;-70
2022/03/25 11:10:51;;;;;;;;;;;;;;;20.90;22.86;101774.50;5031804;28;20065;-70
2022/03/25 11:13:22;;;;;;;32.22;20.77;;;;;;;21.26;24.47;101767.06;5032033;28;20299;-70
2022/03/25 11:15:53;;;;;;;32.00;20.48;;;;;;;20.94;23.74;101767.97;5031784;28;20060;-70
2022/03/25 11:18:23;;;;;;;38.83;22.50;;;;;;;21.42;22.82;101768.25;5026611;28;20038;-70
2022/03/25 11:20:52;;;;;;;38.03;21.83;;;;;;;21.45;23.73;101756.44;5025606;28;20069;-71
2022/03/25 11:23:26;;;;;;;34.22;21.48;;;;;;;21.54;23.46;101755.63;5017835;28;20049;-71
2022/03/25 11:25:57;;;;;;;30.48;19.65;;;;;;;21.45;22.58;101744.47;5031103;28;20504;-71
2022/03/25 11:28:31;;;;;;;32.97;20.67;;;;;;;21.90;23.30;101753.69;5024824;28;20061;-69